Time;durP1;ratioP1;P1;durP2;ratioP2;P2;SDS_P1;SDS_P2;PMS_P1;PMS_P2;Temp;Humidity;BMP_temperature;BMP_pressure;BME280_temperature;BME280_humidity;BME280_pressure;Samples;Min_cycle;Max_cycle;Signal;HPM_P1;HPM_P2
2023/07/11 00:01:13;;;;;;;8.27;3.50;;;;;;;19.81;72.12;101921.41;7394168;19;20018;-53
2023/07/11 00:03:40;;;;;;;8.68;3.60;;;;;;;19.72;72.28;101917.72;7393231;19;20387;-53
2023/07/11 00:06:12;;;;;;;9.10;3.55;;;;;;;19.72;72.23;101922.25;7391625;19;20046;-57
2023/07/11 00:08:39;;;;;;;10.05;4.13;;;;;;;19.46;73.16;101920.16;7393374;19;20022;-57
2023/07/11 00:11:12;;;;;;;8.85;3.40;;;;;;;19.51;72.97;101918.88;7393606;19;20082;-56
2023/07/11 00:13:39;;;;;;;8.40;3.63;;;;;;;19.58;72.37;101914.63;7393498;19;20042;-57
2023/07/11 00:16:11;;;;;;;10.52;3.80;;;;;;;19.61;72.31;101908.94;7392939;19;20039;-55
2023/07/11 00:18:38;;;;;;;9.35;3.30;;;;;;;19.57;72.11;101910.22;7392175;19;20487;-56
2023/07/11 00:21:06;;;;;;;7.13;3.03;;;;;;;19.58;72.18;101906.56;7393145;19;20022;-57
2023/07/11 00:23:33;;;;;;;10.35;3.83;;;;;;;19.56;72.47;101906.69;7391600;19;20035;-57
2023/07/11 00:26:01;;;;;;;7.35;3.20;;;;;;;19.58;71.94;101896.66;7392876;19;20014;-58
2023/07/11 00:28:28;;;;;;;8.35;3.90;;;;;;;19.37;72.87;101895.97;7393002;19;20018;-53
2023/07/11 00:30:56;;;;;;;6.75;3.03;;;;;;;19.12;73.94;101892.88;7393255;19;20038;-58
2023/07/11 00:33:23;;;;;;;8.75;3.70;;;;;;;18.95;74.45;101894.41;7391731;19;20502;-56
2023/07/11 00:35:52;;;;;;;9.75;3.85;;;;;;;18.77;75.03;101893.38;7391427;19;20018;-57
2023/07/11 00:38:21;;;;;;;6.90;3.30;;;;;;;18.74;75.24;101894.53;7391158;19;20078;-59
2023/07/11 00:40:49;;;;;;;6.25;3.00;;;;;;;18.83;75.06;101892.84;7393260;19;20022;-60
2023/07/11 00:43:20;;;;;;;6.47;2.88;;;;;;;19.08;74.62;101882.53;7390566;19;20014;-57
2023/07/11 00:46:05;;;;;;;7.00;2.88;;;;;;;19.29;73.86;101880.56;7391386;19;20022;-59
2023/07/11 00:48:37;;;;;;;5.72;2.67;;;;;;;19.30;73.63;101879.56;7391766;19;20365;-59
2023/07/11 00:51:12;;;;;;;7.53;3.15;;;;;;;19.33;73.65;101883.81;7392493;19;20011;-58
2023/07/11 00:53:42;;;;;;;7.55;2.78;;;;;;;19.32;73.57;101882.13;7391832;19;20022;-58
2023/07/11 00:56:13;;;;;;;7.10;3.00;;;;;;;19.32;73.39;101882.97;7391956;19;20019;-55
2023/07/11 00:58:43;;;;;;;6.45;2.85;;;;;;;19.34;73.12;101872.91;7392760;19;20044;-57
2023/07/11 01:01:12;;;;;;;6.00;2.83;;;;;;;19.34;72.54;101885.50;7392770;19;20018;-55
2023/07/11 01:03:40;;;;;;;6.97;2.95;;;;;;;19.30;72.67;101874.19;7391047;19;20022;-48
2023/07/11 01:06:13;;;;;;;7.25;2.60;;;;;;;19.29;73.22;101877.03;7391596;19;20018;-54
2023/07/11 01:08:41;;;;;;;6.15;2.90;;;;;;;19.27;73.37;101868.25;7391136;19;20029;-54
2023/07/11 01:11:09;;;;;;;6.65;3.25;;;;;;;19.15;73.42;101862.19;7391976;19;20082;-57
2023/07/11 01:13:36;;;;;;;6.55;2.75;;;;;;;19.21;73.25;101861.63;7391309;19;20022;-57
2023/07/11 01:16:04;;;;;;;5.82;2.83;;;;;;;19.28;73.19;101854.69;7390029;19;20023;-58
2023/07/11 01:18:32;;;;;;;7.53;3.08;;;;;;;18.91;74.04;101854.56;7388396;19;20039;-58
2023/07/11 01:20:59;;;;;;;6.20;2.53;;;;;;;19.02;74.14;101856.25;7390341;19;20019;-58
2023/07/11 01:23:27;;;;;;;5.70;2.65;;;;;;;19.11;73.36;101856.25;7387036;19;20468;-58
2023/07/11 01:26:03;;;;;;;5.38;2.75;;;;;;;19.13;73.29;101845.38;7390683;19;20094;-58
2023/07/11 01:28:31;;;;;;;5.80;2.80;;;;;;;19.10;73.18;101846.50;7389193;19;20102;-58
2023/07/11 01:30:58;;;;;;;8.20;3.28;;;;;;;19.06;73.54;101841.56;7390053;19;20038;-55
2023/07/11 01:33:26;;;;;;;5.78;2.60;;;;;;;19.10;73.32;101846.50;7390487;19;20022;-53
2023/07/11 01:35:54;;;;;;;7.55;2.72;;;;;;;19.10;72.96;101840.28;7390980;19;20019;-49
2023/07/11 01:38:24;;;;;;;6.57;2.70;;;;;;;19.19;72.69;101837.63;7390778;19;20456;-51
2023/07/11 01:40:54;;;;;;;6.95;2.85;;;;;;;19.10;73.08;101834.91;7391447;19;20042;-52
2023/07/11 01:43:21;;;;;;;4.47;2.60;;;;;;;19.02;73.25;101835.63;7390658;19;20014;-54
2023/07/11 01:45:48;;;;;;;5.07;2.20;;;;;;;19.02;73.15;101832.09;7389995;19;20046;-55
2023/07/11 01:48:16;;;;;;;6.00;2.50;;;;;;;18.98;73.21;101828.84;7389874;19;20018;-55
2023/07/11 01:50:43;;;;;;;7.03;2.40;;;;;;;18.96;73.05;101829.00;7391084;19;20014;-55
2023/07/11 01:53:11;;;;;;;5.80;2.20;;;;;;;18.97;72.69;101825.31;7388640;19;20077;-56
2023/07/11 01:55:38;;;;;;;5.57;2.08;;;;;;;18.94;72.73;101820.22;7396623;19;20483;-56
2023/07/11 01:58:05;;;;;;;4.18;1.90;;;;;;;18.95;72.68;101818.38;7404450;19;20023;-56
2023/07/11 02:00:32;;;;;;;5.10;2.00;;;;;;;18.91;72.57;101819.66;7403488;19;20019;-58
2023/07/11 02:03:01;;;;;;;3.92;1.70;;;;;;;18.89;72.79;101813.59;7404479;19;20022;-57
2023/07/11 02:05:28;;;;;;;3.67;1.92;;;;;;;18.80;72.69;101814.44;7402236;19;20059;-58
2023/07/11 02:07:55;;;;;;;5.53;2.08;;;;;;;18.79;72.59;101813.59;7404790;19;20038;-58
2023/07/11 02:10:23;;;;;;;3.17;1.88;;;;;;;18.80;72.35;101817.13;7402298;19;20019;-57
2023/07/11 02:12:50;;;;;;;4.00;1.63;;;;;;;18.70;72.69;101803.66;7404092;19;20078;-58
2023/07/11 02:15:17;;;;;;;3.83;1.63;;;;;;;18.70;72.45;101807.22;7403384;19;20015;-59
2023/07/11 02:17:45;;;;;;;4.13;1.88;;;;;;;18.71;72.34;101802.72;7404525;19;20499;-59
2023/07/11 02:20:12;;;;;;;5.53;2.20;;;;;;;18.69;72.42;101802.78;7404764;19;20082;-59
2023/07/11 02:22:40;;;;;;;5.60;1.63;;;;;;;18.66;72.39;101804.91;7402959;19;20089;-59
2023/07/11 02:25:07;;;;;;;4.95;1.70;;;;;;;18.64;72.64;101796.16;7403376;19;20022;-59
2023/07/11 02:27:35;;;;;;;3.40;1.67;;;;;;;18.63;72.57;101803.38;7404357;19;20012;-59
2023/07/11 02:30:02;;;;;;;6.35;1.75;;;;;;;18.71;72.22;101800.03;7402430;19;20019;-59
2023/07/11 02:32:29;;;;;;;4.78;2.05;;;;;;;18.71;72.27;101795.50;7402261;19;20101;-58
2023/07/11 02:34:57;;;;;;;6.85;2.00;;;;;;;18.71;72.29;101794.66;7401857;19;20034;-59
2023/07/11 02:37:24;;;;;;;5.05;2.00;;;;;;;18.66;72.63;101791.50;7407598;19;20022;-58
2023/07/11 02:39:51;;;;;;;5.20;1.85;;;;;;;18.71;72.41;101787.44;7403878;19;20054;-59
2023/07/11 02:42:19;;;;;;;5.70;2.30;;;;;;;18.70;72.31;101791.13;7403943;19;20053;-58
2023/07/11 02:44:46;;;;;;;5.30;2.20;;;;;;;18.70;72.43;101777.72;7401218;19;20026;-59
2023/07/11 02:47:13;;;;;;;6.07;2.30;;;;;;;18.69;72.59;101783.16;7401993;19;20022;-59
2023/07/11 02:49:41;;;;;;;6.40;2.33;;;;;;;18.68;72.38;101773.44;7402621;19;20041;-59
2023/07/11 02:52:10;;;;;;;5.53;2.25;;;;;;;18.67;72.48;101772.59;7403936;19;20039;-59
2023/07/11 02:54:38;;;;;;;5.78;2.63;;;;;;;18.66;72.21;101775.41;7401300;19;20050;-59
2023/07/11 02:57:11;;;;;;;4.78;2.55;;;;;;;18.40;73.71;101772.44;7403061;19;20022;-60
2023/07/11 02:59:38;;;;;;;6.28;2.35;;;;;;;18.48;73.52;101777.94;7403635;19;20032;-60
2023/07/11 03:02:06;;;;;;;6.70;2.60;;;;;;;18.54;72.99;101772.00;7403030;19;20089;-59
2023/07/11 03:04:34;;;;;;;6.75;2.42;;;;;;;18.56;72.96;101761.16;7401551;19;20015;-59
2023/07/11 03:07:01;;;;;;;7.00;2.78;;;;;;;18.57;73.17;101770.88;7397023;19;20018;-59
2023/07/11 03:09:34;;;;;;;7.65;2.80;;;;;;;18.61;72.89;101764.25;7394587;19;20015;-57
2023/07/11 03:12:02;;;;;;;6.53;2.80;;;;;;;18.56;72.77;101758.47;7394348;19;20535;-58
2023/07/11 03:14:29;;;;;;;6.15;2.80;;;;;;;18.52;73.20;101750.69;7391754;19;20364;-58
2023/07/11 03:16:56;;;;;;;6.30;2.20;;;;;;;18.48;72.99;101741.22;7395701;19;20360;-58
2023/07/11 03:19:24;;;;;;;6.78;2.20;;;;;;;18.48;73.25;101738.56;7394099;19;20078;-58
2023/07/11 03:21:51;;;;;;;6.50;2.13;;;;;;;18.45;72.93;101730.78;7395578;19;20026;-59
2023/07/11 03:24:19;;;;;;;4.03;2.15;;;;;;;18.42;73.01;101732.88;7393851;19;20021;-58
2023/07/11 03:26:47;;;;;;;6.53;2.13;;;;;;;18.45;72.93;101729.94;7394600;19;20097;-59
2023/07/11 03:29:15;;;;;;;4.57;2.30;;;;;;;18.49;72.67;101723.31;7394899;19;20090;-58
2023/07/11 03:31:43;;;;;;;6.75;2.42;;;;;;;18.54;72.47;101731.75;7394903;19;20022;-58
2023/07/11 03:34:10;;;;;;;4.35;2.08;;;;;;;18.55;72.38;101727.28;7393580;19;20046;-59
2023/07/11 03:36:38;;;;;;;5.70;2.10;;;;;;;18.59;72.20;101731.38;7396577;19;20082;-58
2023/07/11 03:39:05;;;;;;;8.27;2.70;;;;;;;18.61;72.53;101730.22;7395328;19;20038;-58
2023/07/11 03:41:33;;;;;;;7.10;2.38;;;;;;;18.61;72.65;101724.00;7394751;19;20072;-58
2023/07/11 03:44:00;;;;;;;5.90;2.45;;;;;;;18.59;72.45;101717.94;7393954;19;20014;-58
2023/07/11 03:46:28;;;;;;;6.70;2.42;;;;;;;18.61;72.33;101721.31;7393916;19;20018;-65
2023/07/11 03:48:59;;;;;;;7.43;2.70;;;;;;;18.63;72.66;101716.66;7394432;19;20019;-58
2023/07/11 03:51:27;;;;;;;5.63;2.30;;;;;;;18.60;72.73;101715.09;7394608;19;20363;-58
2023/07/11 03:53:55;;;;;;;6.18;2.60;;;;;;;18.63;72.58;101708.63;7393286;19;20047;-59
2023/07/11 03:56:22;;;;;;;6.82;2.33;;;;;;;18.67;72.67;101705.50;7392367;19;20015;-59
2023/07/11 03:58:52;;;;;;;7.03;2.50;;;;;;;18.65;72.82;101707.47;7394658;19;20019;-58
2023/07/11 04:01:19;;;;;;;4.97;2.50;;;;;;;18.73;72.96;101707.66;7394255;19;20018;-58
2023/07/11 04:03:47;;;;;;;7.18;2.70;;;;;;;18.75;72.77;101702.13;7393399;19;20015;-58
2023/07/11 04:06:14;;;;;;;8.57;3.28;;;;;;;18.85;72.38;101707.47;7392961;19;20015;-57
2023/07/11 04:08:41;;;;;;;6.97;2.75;;;;;;;18.91;72.56;101704.22;7393852;19;20025;-59
2023/07/11 04:11:09;;;;;;;7.90;2.67;;;;;;;18.89;73.03;101714.28;7393711;19;20022;-58
2023/07/11 04:13:36;;;;;;;8.32;2.80;;;;;;;18.91;72.71;101707.75;7393092;19;20024;-59
2023/07/11 04:16:04;;;;;;;8.20;2.70;;;;;;;18.97;72.94;101707.19;7393337;19;20022;-58
2023/07/11 04:18:32;;;;;;;7.57;2.50;;;;;;;18.96;73.09;101700.13;7393266;19;20018;-59
2023/07/11 04:20:59;;;;;;;6.82;2.38;;;;;;;18.91;73.44;101698.88;7394179;19;20022;-58
2023/07/11 04:23:26;;;;;;;10.18;2.72;;;;;;;18.99;73.55;101701.66;7393177;19;20023;-58
2023/07/11 04:25:54;;;;;;;7.22;2.50;;;;;;;19.04;73.55;101703.91;7392687;19;20043;-57
2023/07/11 04:28:21;;;;;;;8.20;2.60;;;;;;;19.02;73.86;101703.22;7393606;19;20074;-58
2023/07/11 04:30:49;;;;;;;6.60;2.45;;;;;;;19.05;73.37;101703.78;7389884;19;20022;-51
2023/07/11 04:33:16;;;;;;;7.63;2.70;;;;;;;19.19;73.16;101699.78;7393115;19;20022;-51
2023/07/11 04:35:45;;;;;;;8.32;2.40;;;;;;;19.26;72.62;101697.34;7392500;19;20019;-50
2023/07/11 04:38:12;;;;;;;7.40;2.33;;;;;;;19.38;72.31;101690.81;7393777;19;20026;-51
2023/07/11 04:40:40;;;;;;;11.35;3.10;;;;;;;19.45;72.26;101694.59;7392801;19;20014;-50
2023/07/11 04:43:07;;;;;;;7.22;2.58;;;;;;;19.48;72.31;101694.31;7392817;19;20054;-50
2023/07/11 04:45:35;;;;;;;8.65;2.70;;;;;;;19.60;71.44;101685.03;7391769;19;20020;-51
2023/07/11 04:48:02;;;;;;;7.82;2.40;;;;;;;19.64;71.39;101685.63;7393410;19;20021;-55
2023/07/11 04:50:30;;;;;;;8.52;2.50;;;;;;;19.65;71.25;101679.25;7391734;19;20019;-50
2023/07/11 04:52:58;;;;;;;7.25;2.63;;;;;;;19.71;70.96;101678.66;7392397;19;20151;-51
2023/07/11 04:55:25;;;;;;;6.88;2.38;;;;;;;19.80;70.84;101679.59;7391902;19;20014;-56
2023/07/11 04:57:52;;;;;;;8.27;2.45;;;;;;;19.80;70.91;101677.75;7390428;19;20515;-53
2023/07/11 05:00:20;;;;;;;10.40;2.55;;;;;;;19.85;70.78;101672.78;7392414;19;20022;-54
2023/07/11 05:02:47;;;;;;;8.00;2.42;;;;;;;19.90;70.65;101675.84;7390272;19;20035;-55
2023/07/11 05:05:15;;;;;;;9.05;2.40;;;;;;;20.04;69.91;101674.50;7390625;19;20043;-53
2023/07/11 05:07:42;;;;;;;10.75;2.58;;;;;;;20.21;69.04;101675.50;7391897;19;20039;-56
2023/07/11 05:10:09;;;;;;;10.23;2.33;;;;;;;20.33;68.55;101655.44;7391024;19;20021;-53
2023/07/11 05:12:37;;;;;;;7.10;2.33;;;;;;;20.39;68.25;101662.91;7391845;19;20102;-54
2023/07/11 05:15:05;;;;;;;8.43;2.20;;;;;;;20.46;67.64;101663.13;7389157;19;20506;-54
2023/07/11 05:17:32;;;;;;;8.02;2.03;;;;;;;20.48;67.12;101661.09;7391961;19;20018;-55
2023/07/11 05:19:59;;;;;;;8.57;2.53;;;;;;;20.50;67.03;101645.69;7391379;19;20023;-55
2023/07/11 05:22:27;;;;;;;7.03;2.25;;;;;;;20.57;66.66;101644.06;7391449;19;20029;-53
2023/07/11 05:24:54;;;;;;;6.53;2.40;;;;;;;20.63;66.54;101646.13;7388198;19;20138;-53
2023/07/11 05:27:21;;;;;;;7.70;2.58;;;;;;;20.72;66.00;101638.09;7389745;19;20028;-53
2023/07/11 05:29:49;;;;;;;10.13;2.30;;;;;;;20.80;65.28;101640.88;7389026;19;20022;-54
2023/07/11 05:32:16;;;;;;;8.75;2.42;;;;;;;20.90;64.77;101637.06;7391047;19;20030;-52
2023/07/11 05:34:43;;;;;;;5.05;2.10;;;;;;;20.93;64.83;101631.34;7390188;19;20046;-57
2023/07/11 05:37:10;;;;;;;10.13;2.40;;;;;;;20.91;65.37;101633.38;7392727;19;20025;-58
2023/07/11 05:39:38;;;;;;;10.27;2.80;;;;;;;20.87;65.72;101626.63;7390897;19;20528;-58
2023/07/11 05:42:05;;;;;;;6.22;2.35;;;;;;;20.81;65.24;101619.16;7390574;19;20081;-58
2023/07/11 05:44:33;;;;;;;7.65;2.10;;;;;;;20.81;65.24;101618.31;7389974;19;20075;-58
2023/07/11 05:47:00;;;;;;;8.57;2.60;;;;;;;20.89;65.33;101626.44;7390222;19;20085;-58
2023/07/11 05:49:27;;;;;;;9.13;2.47;;;;;;;20.95;65.24;101617.75;7390188;19;20599;-61
2023/07/11 05:51:55;;;;;;;6.18;2.30;;;;;;;21.02;64.75;101618.75;7389981;19;20492;-60
2023/07/11 05:54:22;;;;;;;8.27;2.33;;;;;;;21.04;64.33;101615.94;7389628;19;20025;-58
2023/07/11 05:56:49;;;;;;;6.47;2.20;;;;;;;21.07;64.66;101608.38;7389324;19;20046;-58
2023/07/11 05:59:18;;;;;;;10.48;2.33;;;;;;;21.03;64.52;101604.31;7390282;19;20146;-58
2023/07/11 06:01:45;;;;;;;11.52;2.88;;;;;;;20.99;64.81;101607.50;7389508;19;20018;-58
2023/07/11 06:04:18;;;;;;;8.77;2.40;;;;;;;20.92;64.81;101599.22;7389424;19;20015;-59
2023/07/11 06:06:45;;;;;;;6.72;2.20;;;;;;;20.83;64.63;101601.00;7389401;19;20124;-59
2023/07/11 06:09:16;;;;;;;7.07;1.92;;;;;;;20.85;64.06;101592.75;7389659;19;20011;-58
2023/07/11 06:11:45;;;;;;;9.68;2.60;;;;;;;20.89;64.42;101588.75;7387980;19;20026;-58
2023/07/11 06:14:13;;;;;;;8.00;2.30;;;;;;;20.90;64.55;101595.81;7388971;19;20084;-58
2023/07/11 06:16:42;;;;;;;7.43;2.10;;;;;;;20.91;64.24;101584.91;7389312;19;20031;-58
2023/07/11 06:19:09;;;;;;;6.63;1.95;;;;;;;20.92;63.76;101586.59;7389197;19;20017;-58
2023/07/11 06:21:37;;;;;;;8.40;2.28;;;;;;;20.98;63.94;101577.00;7389513;19;20088;-59
2023/07/11 06:24:04;;;;;;;6.40;2.17;;;;;;;20.99;64.00;101578.72;7388407;19;20479;-59
2023/07/11 06:26:31;;;;;;;7.30;2.25;;;;;;;;;;7388985;19;20100;-58
2023/07/11 06:28:59;;;;;;;7.32;2.28;;;;;;;21.16;64.07;101574.22;7389110;19;20018;-58
2023/07/11 06:31:26;;;;;;;8.55;2.28;;;;;;;21.28;63.45;101564.00;7386389;19;20046;-59
2023/07/11 06:33:53;;;;;;;7.75;2.05;;;;;;;21.43;63.26;101562.41;7388619;19;20028;-59
2023/07/11 06:36:20;;;;;;;12.45;2.28;;;;;;;21.52;62.46;101557.84;7389418;19;20015;-59
2023/07/11 06:38:47;;;;;;;6.38;2.15;;;;;;;21.60;62.25;101561.44;7388747;19;20033;-58
2023/07/11 06:41:15;;;;;;;9.00;2.83;;;;;;;21.65;61.96;101551.00;7388846;19;20014;-58
2023/07/11 06:43:42;;;;;;;7.70;2.33;;;;;;;21.66;61.81;101557.22;7394167;19;20025;-59
2023/07/11 06:46:09;;;;;;;6.35;2.25;;;;;;;21.74;61.72;101553.69;7395486;19;20434;-58
2023/07/11 06:48:37;;;;;;;8.55;2.38;;;;;;;21.80;61.87;101548.47;7396318;19;20022;-58
2023/07/11 06:51:04;;;;;;;7.97;2.22;;;;;;;21.82;61.68;101553.69;7394710;19;20022;-58
2023/07/11 06:53:34;;;;;;;6.45;2.00;;;;;;;21.86;61.19;101550.53;7395603;19;20500;-59
2023/07/11 06:56:02;;;;;;;7.57;2.05;;;;;;;21.89;61.90;101543.94;7396036;19;20076;-59
2023/07/11 06:58:30;;;;;;;8.63;2.20;;;;;;;21.95;61.65;101548.66;7396212;19;20019;-59
2023/07/11 07:01:06;;;;;;;7.95;2.28;;;;;;;21.98;61.34;101539.38;7395658;19;20154;-59
2023/07/11 07:03:45;;;;;;;8.00;2.08;;;;;;;22.00;61.08;101530.13;7395280;19;20022;-59
2023/07/11 07:06:13;;;;;;;8.60;1.90;;;;;;;22.06;61.16;101536.72;7395334;19;20019;-58
2023/07/11 07:08:41;;;;;;;12.05;2.10;;;;;;;22.10;61.15;101529.97;7395223;19;20022;-59
2023/07/11 07:11:09;;;;;;;8.20;2.38;;;;;;;22.09;61.12;101529.13;7393611;19;20022;-58
2023/07/11 07:13:36;;;;;;;6.25;2.20;;;;;;;22.00;61.60;101529.28;7395037;19;20018;-58
2023/07/11 07:16:14;;;;;;;8.93;2.13;;;;;;;21.98;61.75;101531.28;7394689;19;20025;-59
2023/07/11 07:18:43;;;;;;;6.18;2.17;;;;;;;22.02;61.98;101533.50;7395749;19;20018;-59
2023/07/11 07:21:10;;;;;;;7.57;2.60;;;;;;;22.09;61.29;101531.81;7395210;19;20018;-60
2023/07/11 07:23:37;;;;;;;8.35;1.90;;;;;;;22.14;61.30;101525.94;7394498;19;20086;-58
2023/07/11 07:26:05;;;;;;;7.57;1.77;;;;;;;22.21;60.98;101520.69;7394463;19;20086;-59
2023/07/11 07:28:36;;;;;;;7.75;2.20;;;;;;;22.32;60.14;101520.31;7394740;19;20714;-59
2023/07/11 07:31:08;;;;;;;7.45;2.00;;;;;;;22.38;60.22;101522.34;7393545;19;20073;-59
2023/07/11 07:33:35;;;;;;;7.88;1.88;;;;;;;22.44;59.57;101527.06;7394203;19;20018;-60
2023/07/11 07:36:05;;;;;;;5.05;1.80;;;;;;;22.57;58.87;101519.28;7395049;19;20018;-58
2023/07/11 07:38:33;;;;;;;8.73;1.92;;;;;;;22.61;58.44;101512.50;7394936;19;20022;-60
2023/07/11 07:41:03;;;;;;;9.85;1.85;;;;;;;22.67;58.62;101508.28;7394967;19;20060;-61
2023/07/11 07:43:32;;;;;;;8.57;1.73;;;;;;;22.76;58.02;101512.63;7394250;19;20018;-60
2023/07/11 07:46:01;;;;;;;11.98;2.35;;;;;;;22.82;58.11;101513.81;7394148;19;20015;-60
2023/07/11 07:48:28;;;;;;;8.63;2.05;;;;;;;22.90;57.64;101499.41;7393928;19;20041;-60
2023/07/11 07:51:03;;;;;;;5.55;1.75;;;;;;;23.02;58.04;101498.88;7392749;19;20022;-60
2023/07/11 07:53:31;;;;;;;6.13;2.22;;;;;;;23.19;57.28;101496.06;7390937;19;20108;-60
2023/07/11 07:56:23;;;;;;;8.40;2.00;;;;;;;23.24;57.05;101491.00;7393705;19;20039;-60
2023/07/11 07:58:51;;;;;;;5.75;2.15;;;;;;;23.22;57.33;101493.03;7393598;19;20035;-60
2023/07/11 08:01:20;;;;;;;8.20;1.83;;;;;;;23.35;56.33;101491.44;7394107;19;20104;-61
2023/07/11 08:03:48;;;;;;;6.95;1.90;;;;;;;23.43;56.48;101485.13;7393506;19;20090;-62
2023/07/11 08:06:17;;;;;;;5.53;2.00;;;;;;;23.49;55.56;101483.56;7393370;19;20527;-58
2023/07/11 08:08:45;;;;;;;5.82;2.10;;;;;;;23.52;55.46;101477.78;7393298;19;20025;-60
2023/07/11 08:11:14;;;;;;;5.63;1.70;;;;;;;23.56;55.27;101473.69;7390672;19;20499;-60
2023/07/11 08:13:41;;;;;;;8.23;1.90;;;;;;;23.59;54.94;101467.94;7393344;19;20023;-61
2023/07/11 08:16:12;;;;;;;6.95;2.33;;;;;;;23.63;54.68;101468.41;7392847;19;20019;-60
2023/07/11 08:18:57;;;;;;;8.55;2.08;;;;;;;23.65;54.61;101471.78;7393139;19;20119;-61
2023/07/11 08:21:24;;;;;;;4.78;1.90;;;;;;;23.71;54.36;101471.09;7393700;19;20479;-59
2023/07/11 08:23:52;;;;;;;13.38;2.35;;;;;;;23.85;53.71;101462.19;7392112;19;20405;-63
2023/07/11 08:26:21;;;;;;;5.32;1.80;;;;;;;23.90;53.55;101464.34;7392074;19;20019;-61
2023/07/11 08:28:49;;;;;;;7.28;2.40;;;;;;;24.04;52.68;101464.38;7392502;19;20019;-60
2023/07/11 08:31:17;;;;;;;7.68;2.13;;;;;;;24.02;52.28;101458.28;7390554;19;20060;-61
2023/07/11 08:33:44;;;;;;;5.35;2.13;;;;;;;23.96;52.69;101448.22;7392266;19;20024;-60
2023/07/11 08:36:12;;;;;;;4.03;1.80;;;;;;;23.91;52.39;101450.59;7393246;19;20018;-60
2023/07/11 08:38:39;;;;;;;6.00;2.00;;;;;;;23.98;52.40;101451.56;7392657;19;20011;-60
2023/07/11 08:41:24;;;;;;;4.50;1.80;;;;;;;24.16;49.83;101442.25;7392125;19;20086;-59
2023/07/11 08:43:54;;;;;;;6.40;1.95;;;;;;;24.28;50.26;101440.75;7391404;19;20017;-60
2023/07/11 08:46:24;;;;;;;5.47;1.85;;;;;;;24.43;50.43;101438.09;7390470;19;20022;-58
2023/07/11 08:48:56;;;;;;;5.30;2.00;;;;;;;24.45;50.09;101436.84;7392515;19;20018;-58
2023/07/11 08:51:40;;;;;;;4.93;1.90;;;;;;;24.35;50.95;101433.59;7391121;19;20018;-59
2023/07/11 08:54:20;;;;;;;5.85;2.17;;;;;;;24.42;50.67;101429.13;7391055;19;20357;-58
2023/07/11 08:56:49;;;;;;;5.38;2.05;;;;;;;24.44;50.92;101431.66;7391738;19;20015;-58
2023/07/11 08:59:25;;;;;;;6.72;2.05;;;;;;;24.50;50.76;101431.75;7391683;19;20033;-60
2023/07/11 09:02:01;;;;;;;6.72;2.15;;;;;;;24.62;49.97;101423.97;7390898;19;20135;-62
2023/07/11 09:04:30;;;;;;;5.45;2.20;;;;;;;24.77;49.60;101422.06;7389092;19;20023;-62
2023/07/11 09:07:04;;;;;;;6.45;2.08;;;;;;;24.81;49.35;101417.13;7390832;19;20483;-61
2023/07/11 09:09:32;;;;;;;8.77;2.00;;;;;;;24.87;49.24;101407.38;7391264;19;20015;-61
2023/07/11 09:12:11;;;;;;;7.10;2.40;;;;;;;24.74;49.95;101414.31;7390242;19;20019;-60
2023/07/11 09:15:05;;;;;;;4.57;1.80;;;;;;;24.90;49.31;101412.41;7388805;19;20531;-63
2023/07/11 09:17:58;;;;;;;5.22;2.00;;;;;;;24.96;48.43;101406.25;7391659;19;20050;-59
2023/07/11 09:20:44;;;;;;;4.20;1.83;;;;;;;24.90;49.15;101410.53;7389319;19;20485;-62
2023/07/11 09:23:44;;;;;;;7.18;2.17;;;;;;;24.95;48.92;101407.25;7391644;19;20081;-60
2023/07/11 09:26:25;;;;;;;7.35;2.20;;;;;;;25.03;49.18;101399.84;7390623;19;20116;-60
2023/07/11 09:29:00;;;;;;;5.57;1.80;;;;;;;25.04;49.29;101404.25;7391042;19;20023;-59
2023/07/11 09:31:38;;;;;;;4.05;1.90;;;;;;;25.13;49.06;101401.44;7389652;19;20097;-60
2023/07/11 09:34:25;;;;;;;7.07;2.30;;;;;;;25.16;49.38;101396.47;7390262;19;20271;-60
2023/07/11 09:36:56;;;;;;;5.25;2.15;;;;;;;25.21;49.28;101385.88;7392450;19;20074;-60
2023/07/11 09:39:47;;;;;;;6.95;2.50;;;;;;;25.28;48.47;101388.66;7389655;19;20014;-60
2023/07/11 09:42:33;;;;;;;6.68;2.38;;;;;;;25.21;49.56;101385.03;7391070;19;20458;-60
2023/07/11 09:45:20;;;;;;;6.47;2.80;;;;;;;25.44;49.08;101379.41;7388557;19;20495;-60
2023/07/11 09:48:05;;;;;;;5.20;2.17;;;;;;;25.52;47.91;101371.13;7391739;19;20015;-60
2023/07/11 09:50:52;;;;;;;7.90;2.30;;;;;;;25.67;47.25;101376.47;7387469;19;20504;-59
2023/07/11 09:53:46;;;;;;;5.88;2.58;;;;;;;25.61;46.19;101377.25;7390076;19;20405;-59
2023/07/11 09:56:17;;;;;;;4.78;2.03;;;;;;;25.58;46.91;101367.63;7389452;19;20531;-59
2023/07/11 09:58:59;;;;;;;4.65;2.10;;;;;;;25.67;46.71;101368.31;7389153;19;20018;-59
2023/07/11 10:01:32;;;;;;;6.47;2.22;;;;;;;25.72;47.12;101353.13;7388842;19;20015;-59
2023/07/11 10:04:01;;;;;;;7.30;2.13;;;;;;;25.71;47.19;101350.59;7389298;19;20030;-60
2023/07/11 10:06:28;;;;;;;3.63;2.10;;;;;;;25.79;47.02;101342.34;7389502;19;20022;-60
2023/07/11 10:09:15;;;;;;;5.82;2.28;;;;;;;25.79;47.19;101331.47;7389941;19;20110;-60
2023/07/11 10:12:07;;;;;;;6.45;2.10;;;;;;;25.93;46.45;101319.66;7389231;19;20030;-60
2023/07/11 10:14:45;;;;;;;4.25;1.88;;;;;;;26.04;45.81;101334.56;7387405;19;20042;-59
2023/07/11 10:17:22;;;;;;;4.82;2.28;;;;;;;26.08;45.47;101333.13;7394224;19;20026;-59
2023/07/11 10:19:54;;;;;;;5.40;2.25;;;;;;;26.04;46.30;101331.00;7397950;19;20022;-59
2023/07/11 10:22:42;;;;;;;4.22;1.98;;;;;;;25.96;46.71;101329.31;7398215;19;20029;-59
2023/07/11 10:25:26;;;;;;;5.53;2.05;;;;;;;26.09;45.37;101323.94;7393821;19;20043;-60
2023/07/11 10:28:20;;;;;;;8.38;2.22;;;;;;;26.15;45.38;101308.72;7396683;19;20015;-59
2023/07/11 10:30:48;;;;;;;6.25;2.10;;;;;;;26.15;45.30;101303.28;7397087;19;20071;-59
2023/07/11 10:33:27;;;;;;;6.60;2.10;;;;;;;26.39;44.45;101305.47;7396166;19;20019;-60
2023/07/11 10:36:18;;;;;;;6.70;2.45;;;;;;;26.33;44.33;101300.00;7397266;19;20097;-60
2023/07/11 10:38:49;;;;;;;7.15;2.35;;;;;;;26.40;43.80;101292.72;7396418;19;20031;-60
2023/07/11 10:41:32;;;;;;;8.68;2.28;;;;;;;26.38;43.47;101298.38;7396557;19;20488;-60
2023/07/11 10:44:02;;;;;;;5.18;1.92;;;;;;;26.39;43.01;101286.44;7395658;19;20027;-60
2023/07/11 10:46:41;;;;;;;6.55;2.42;;;;;;;26.36;43.51;101286.84;7396146;19;20251;-60
2023/07/11 10:49:15;;;;;;;11.10;2.22;;;;;;;26.42;43.33;101283.31;7396392;19;20058;-60
2023/07/11 10:51:57;;;;;;;4.15;2.00;;;;;;;26.38;43.94;101283.94;7394653;19;20111;-59
2023/07/11 10:54:50;;;;;;;4.25;1.98;;;;;;;26.49;42.14;101280.66;7394688;19;20014;-60
2023/07/11 10:57:38;;;;;;;5.28;2.10;;;;;;;26.41;42.37;101275.41;7396769;19;20376;-60
2023/07/11 11:00:17;;;;;;;5.88;2.15;;;;;;;26.36;43.47;101278.69;7396504;19;20014;-59
2023/07/11 11:02:50;;;;;;;5.50;1.95;;;;;;;26.43;43.73;101276.84;7395936;19;20034;-60
2023/07/11 11:05:28;;;;;;;5.95;1.90;;;;;;;26.55;42.07;101268.97;7390959;19;20038;-59
2023/07/11 11:08:06;;;;;;;3.72;1.85;;;;;;;26.56;43.08;101267.94;7396306;19;20033;-60
2023/07/11 11:10:49;;;;;;;5.40;1.90;;;;;;;26.55;42.66;101251.84;7396040;19;20042;-61
2023/07/11 11:13:55;;;;;;;5.22;2.15;;;;;;;26.54;42.44;101269.19;7394275;19;20018;-59
2023/07/11 11:16:32;;;;;;;4.97;2.00;;;;;;;26.68;42.64;101257.31;7392800;19;20018;-60
2023/07/11 11:19:26;;;;;;;4.40;2.05;;;;;;;26.59;42.32;101256.63;7395303;19;20066;-63
2023/07/11 11:22:09;;;;;;;5.38;2.40;;;;;;;26.71;42.07;101241.41;7395159;19;20010;-60
2023/07/11 11:25:16;;;;;;;6.15;2.40;;;;;;;26.62;42.75;101244.53;7393706;19;20022;-59
2023/07/11 11:27:58;;;;;;;5.20;2.25;;;;;;;26.68;43.11;101236.41;7391967;19;20085;-59
2023/07/11 11:30:56;;;;;;;5.70;2.20;;;;;;;26.64;43.51;101237.84;7395661;19;20024;-60
2023/07/11 11:33:38;;;;;;;4.90;2.10;;;;;;;26.34;44.34;101237.34;7394890;19;20284;-60
2023/07/11 11:36:09;;;;;;;5.53;2.00;;;;;;;26.28;44.44;101231.88;7394645;19;20018;-61
2023/07/11 11:38:55;;;;;;;4.50;2.03;;;;;;;26.58;43.13;101229.69;7394990;19;20022;-59
2023/07/11 11:41:36;;;;;;;5.55;2.15;;;;;;;26.61;43.77;101229.28;7394526;19;20429;-58
2023/07/11 11:44:15;;;;;;;6.60;2.10;;;;;;;26.79;42.93;101224.06;7393884;19;20105;-60